Time,TemperatureF,DewpointF,PressureIn,WindDirection,WindDirectionDegrees,WindSpeedMPH,WindSpeedGustMPH,Humidity,HourlyPrecipIn,Conditions,Clouds,dailyrainin,SolarRadiationWatts/m^2,SoftwareType,DateUTC
2013-05-01 00:02:00,91.0,54.0,-100.00,SE,127,14.0,23.0,29,0.00,,,0.00,566.000000,,2013-05-01 00:02:00,
2013-05-01 00:32:00,88.0,55.0,-100.00,ESE,118,14.0,22.0,33,0.00,,,-99.99,304.000000,,2013-05-01 00:32:00,
2013-05-01 00:42:00,88.0,55.0,-100.00,ESE,118,14.0,22.0,33,0.00,,,-99.99,304.000000,,2013-05-01 00:42:00,
2013-05-01 00:52:00,88.0,55.0,-100.00,ESE,118,14.0,22.0,33,0.00,,,-99.99,304.000000,,2013-05-01 00:52:00,
2013-05-01 01:01:00,88.0,55.0,-100.00,ESE,118,14.0,22.0,33,0.00,,,-99.99,304.000000,,2013-05-01 01:01:00,
2013-05-01 01:32:00,83.0,55.0,-100.00,ESE,120,14.0,23.0,39,0.00,,,-99.99,94.000000,,2013-05-01 01:32:00,
2013-05-01 01:42:00,83.0,55.0,-100.00,ESE,120,14.0,23.0,39,0.00,,,-99.99,94.000000,,2013-05-01 01:42:00,
2013-05-01 01:52:00,83.0,55.0,-100.00,ESE,120,14.0,23.0,39,0.00,,,-99.99,94.000000,,2013-05-01 01:52:00,
2013-05-01 02:02:00,83.0,55.0,-100.00,ESE,120,14.0,23.0,39,0.00,,,-99.99,94.000000,,2013-05-01 02:02:00,
2013-05-01 02:32:00,80.0,56.0,-100.00,ESE,117,13.0,23.0,44,0.00,,,-99.99,2.000000,,2013-05-01 02:32:00,
2013-05-01 02:42:00,80.0,56.0,-100.00,ESE,117,13.0,23.0,44,0.00,,,-99.99,2.000000,,2013-05-01 02:42:00,
2013-05-01 02:52:00,80.0,56.0,-100.00,ESE,117,13.0,23.0,44,0.00,,,-99.99,2.000000,,2013-05-01 02:52:00,
2013-05-01 03:02:00,80.0,56.0,-100.00,ESE,117,13.0,23.0,44,0.00,,,-99.99,2.000000,,2013-05-01 03:02:00,
2013-05-01 03:33:00,78.0,56.0,-100.00,ESE,118,13.0,21.0,47,0.00,,,-99.99,0.000000,,2013-05-01 03:33:00,
2013-05-01 03:43:00,78.0,56.0,-100.00,ESE,118,13.0,21.0,47,0.00,,,-99.99,0.000000,,2013-05-01 03:43:00,
2013-05-01 03:53:00,78.0,56.0,-100.00,ESE,118,13.0,21.0,47,0.00,,,-99.99,0.000000,,2013-05-01 03:53:00,
2013-05-01 04:03:00,78.0,56.0,-100.00,ESE,118,13.0,21.0,47,0.00,,,-99.99,0.000000,,2013-05-01 04:03:00,
2013-05-01 04:32:00,76.0,57.0,-100.00,ESE,118,16.0,21.0,51,0.00,,,-99.99,0.000000,,2013-05-01 04:32:00,
2013-05-01 04:43:00,76.0,57.0,-100.00,ESE,118,16.0,21.0,51,0.00,,,-99.99,0.000000,,2013-05-01 04:43:00,
2013-05-01 04:52:00,76.0,57.0,-100.00,ESE,118,16.0,21.0,51,0.00,,,-99.99,0.000000,,2013-05-01 04:52:00,
2013-05-01 05:02:00,76.0,57.0,-100.00,ESE,118,16.0,21.0,51,0.00,,,-99.99,0.000000,,2013-05-01 05:02:00,
2013-05-01 05:32:00,74.0,59.0,-100.00,NE,53,10.0,20.0,59,0.00,,,-99.99,0.000000,,2013-05-01 05:32:00,
2013-05-01 05:42:00,74.0,59.0,-100.00,NE,53,10.0,20.0,59,0.00,,,-99.99,0.000000,,2013-05-01 05:42:00,
2013-05-01 05:52:00,74.0,59.0,-100.00,NE,53,10.0,20.0,59,0.00,,,-99.99,0.000000,,2013-05-01 05:52:00,
2013-05-01 06:02:00,74.0,59.0,-100.00,NE,53,10.0,20.0,59,0.00,,,-99.99,0.000000,,2013-05-01 06:02:00,
2013-05-01 06:32:00,73.0,60.0,-100.00,ENE,57,8.0,13.0,63,0.00,,,-99.99,0.000000,,2013-05-01 06:32:00,
2013-05-01 06:42:00,73.0,60.0,-100.00,ENE,57,8.0,13.0,63,0.00,,,-99.99,0.000000,,2013-05-01 06:42:00,
2013-05-01 06:52:00,73.0,60.0,-100.00,ENE,57,8.0,13.0,63,0.00,,,-99.99,0.000000,,2013-05-01 06:52:00,
2013-05-01 07:01:00,73.0,60.0,-100.00,ENE,57,8.0,13.0,63,0.00,,,-99.99,0.000000,,2013-05-01 07:01:00,
2013-05-01 07:32:00,71.0,59.0,-100.00,ESE,121,8.0,11.0,66,0.00,,,-99.99,0.000000,,2013-05-01 07:32:00,
2013-05-01 07:42:00,71.0,59.0,-100.00,ESE,121,8.0,11.0,66,0.00,,,-99.99,0.000000,,2013-05-01 07:42:00,
2013-05-01 07:52:00,71.0,59.0,-100.00,ESE,121,8.0,11.0,66,0.00,,,-99.99,0.000000,,2013-05-01 07:52:00,
2013-05-01 08:02:00,71.0,59.0,-100.00,ESE,121,8.0,11.0,66,0.00,,,-99.99,0.000000,,2013-05-01 08:02:00,
2013-05-01 08:32:00,70.0,60.0,-100.00,SE,145,9.0,13.0,70,0.00,,,0.00,0.000000,,2013-05-01 08:32:00,
2013-05-01 08:42:00,70.0,60.0,-100.00,SE,145,9.0,13.0,70,0.00,,,0.00,0.000000,,2013-05-01 08:42:00,
2013-05-01 08:53:00,70.0,60.0,-100.00,SE,145,9.0,13.0,70,0.00,,,0.00,0.000000,,2013-05-01 08:53:00,
2013-05-01 09:01:00,70.0,60.0,-100.00,SE,145,9.0,13.0,70,0.00,,,0.00,0.000000,,2013-05-01 09:01:00,
2013-05-01 09:33:00,69.0,60.0,-100.00,ESE,122,8.0,17.0,74,0.00,,,-99.99,0.000000,,2013-05-01 09:33:00,
2013-05-01 09:43:00,69.0,60.0,-100.00,ESE,122,8.0,17.0,74,0.00,,,-99.99,0.000000,,2013-05-01 09:43:00,
2013-05-01 09:53:00,69.0,60.0,-100.00,ESE,122,8.0,17.0,74,0.00,,,-99.99,0.000000,,2013-05-01 09:53:00,
2013-05-01 10:02:00,69.0,60.0,-100.00,ESE,122,8.0,17.0,74,0.00,,,-99.99,0.000000,,2013-05-01 10:02:00,
2013-05-01 10:33:00,68.0,60.0,-100.00,ESE,123,8.0,17.0,76,0.00,,,-99.99,0.000000,,2013-05-01 10:33:00,
2013-05-01 10:42:00,68.0,60.0,-100.00,ESE,123,8.0,17.0,76,0.00,,,-99.99,0.000000,,2013-05-01 10:42:00,
2013-05-01 10:53:00,68.0,60.0,-100.00,ESE,123,8.0,17.0,76,0.00,,,-99.99,0.000000,,2013-05-01 10:53:00,
2013-05-01 11:02:00,68.0,60.0,-100.00,ESE,123,8.0,17.0,76,0.00,,,-99.99,0.000000,,2013-05-01 11:02:00,
2013-05-01 11:32:00,67.0,61.0,-100.00,SE,138,7.0,13.0,82,0.00,,,-99.99,0.000000,,2013-05-01 11:32:00,
2013-05-01 11:42:00,67.0,61.0,-100.00,SE,138,7.0,13.0,82,0.00,,,-99.99,0.000000,,2013-05-01 11:42:00,
2013-05-01 11:52:00,67.0,61.0,-100.00,SE,138,7.0,13.0,82,0.00,,,-99.99,0.000000,,2013-05-01 11:52:00,
2013-05-01 12:01:00,67.0,61.0,-100.00,SE,138,7.0,13.0,82,0.00,,,-99.99,0.000000,,2013-05-01 12:01:00,
2013-05-01 13:32:00,69.0,64.0,-100.00,SSE,153,6.0,10.0,83,-99.99,,,-99.99,57.000000,,2013-05-01 13:32:00,
2013-05-01 13:42:00,69.0,64.0,-100.00,SSE,153,6.0,10.0,83,-99.99,,,-99.99,57.000000,,2013-05-01 13:42:00,
2013-05-01 13:52:00,69.0,64.0,-100.00,SSE,153,6.0,10.0,83,-99.99,,,-99.99,57.000000,,2013-05-01 13:52:00,
2013-05-01 14:02:00,69.0,64.0,-100.00,SSE,153,6.0,10.0,83,-99.99,,,-99.99,57.000000,,2013-05-01 14:02:00,
2013-05-01 14:32:00,72.0,64.0,-100.00,SSE,162,10.0,15.0,77,0.00,,,-99.99,98.000000,,2013-05-01 14:32:00,
2013-05-01 14:42:00,72.0,64.0,-100.00,SSE,162,10.0,15.0,77,0.00,,,-99.99,98.000000,,2013-05-01 14:42:00,
2013-05-01 14:52:00,72.0,64.0,-100.00,SSE,162,10.0,15.0,77,0.00,,,-99.99,98.000000,,2013-05-01 14:52:00,
2013-05-01 15:01:00,72.0,64.0,-100.00,SSE,162,10.0,15.0,77,0.00,,,-99.99,98.000000,,2013-05-01 15:01:00,
2013-05-01 15:33:00,75.0,64.0,-100.00,South,169,12.0,17.0,69,0.00,,,-99.99,291.000000,,2013-05-01 15:33:00,
2013-05-01 15:43:00,75.0,64.0,-100.00,South,169,12.0,17.0,69,0.00,,,-99.99,291.000000,,2013-05-01 15:43:00,
2013-05-01 15:53:00,75.0,64.0,-100.00,South,169,12.0,17.0,69,0.00,,,-99.99,291.000000,,2013-05-01 15:53:00,
2013-05-01 16:03:00,75.0,64.0,-100.00,South,169,12.0,17.0,69,0.00,,,-99.99,291.000000,,2013-05-01 16:03:00,
2013-05-01 16:32:00,78.0,62.0,-100.00,SSW,199,9.0,19.0,58,0.00,,,0.00,548.000000,,2013-05-01 16:32:00,
2013-05-01 16:42:00,78.0,62.0,-100.00,SSW,199,9.0,19.0,58,0.00,,,0.00,548.000000,,2013-05-01 16:42:00,
2013-05-01 16:53:00,78.0,62.0,-100.00,SSW,199,9.0,19.0,58,0.00,,,0.00,548.000000,,2013-05-01 16:53:00,
2013-05-01 17:02:00,78.0,62.0,-100.00,SSW,199,9.0,19.0,58,0.00,,,0.00,548.000000,,2013-05-01 17:02:00,
2013-05-01 17:32:00,80.0,62.0,-100.00,SW,214,10.0,15.0,55,0.00,,,-99.99,430.000000,,2013-05-01 17:32:00,
2013-05-01 17:42:00,80.0,62.0,-100.00,SW,214,10.0,15.0,55,0.00,,,-99.99,430.000000,,2013-05-01 17:42:00,
2013-05-01 17:52:00,80.0,62.0,-100.00,SW,214,10.0,15.0,55,0.00,,,-99.99,430.000000,,2013-05-01 17:52:00,
2013-05-01 18:01:00,80.0,62.0,-100.00,SW,214,10.0,15.0,55,0.00,,,-99.99,430.000000,,2013-05-01 18:01:00,
2013-05-01 18:32:00,83.0,63.0,-100.00,SE,135,3.0,15.0,51,0.00,,,0.00,490.000000,,2013-05-01 18:32:00,
2013-05-01 18:42:00,83.0,63.0,-100.00,SE,135,3.0,15.0,51,0.00,,,0.00,490.000000,,2013-05-01 18:42:00,
2013-05-01 18:52:00,83.0,63.0,-100.00,SE,135,3.0,15.0,51,0.00,,,0.00,490.000000,,2013-05-01 18:52:00,
2013-05-01 19:02:00,83.0,63.0,-100.00,SE,135,3.0,15.0,51,0.00,,,0.00,490.000000,,2013-05-01 19:02:00,
2013-05-01 19:32:00,88.0,63.0,-100.00,SE,139,7.0,14.0,43,0.00,,,0.00,857.000000,,2013-05-01 19:32:00,
2013-05-01 19:43:00,88.0,63.0,-100.00,SE,139,7.0,14.0,43,0.00,,,0.00,857.000000,,2013-05-01 19:43:00,
2013-05-01 19:52:00,88.0,63.0,-100.00,SE,139,7.0,14.0,43,0.00,,,0.00,857.000000,,2013-05-01 19:52:00,
2013-05-01 20:01:00,88.0,63.0,-100.00,SE,139,7.0,14.0,43,0.00,,,0.00,857.000000,,2013-05-01 20:01:00,
2013-05-01 20:32:00,91.0,62.0,-100.00,SE,141,7.0,15.0,38,0.00,,,0.00,1049.000000,,2013-05-01 20:32:00,
2013-05-01 20:42:00,91.0,62.0,-100.00,SE,141,7.0,15.0,38,0.00,,,0.00,1049.000000,,2013-05-01 20:42:00,
2013-05-01 20:52:00,91.0,62.0,-100.00,SE,141,7.0,15.0,38,0.00,,,0.00,1049.000000,,2013-05-01 20:52:00,
2013-05-01 21:01:00,91.0,62.0,-100.00,SE,141,7.0,15.0,38,0.00,,,0.00,1049.000000,,2013-05-01 21:01:00,
2013-05-01 21:32:00,92.0,60.0,-100.00,SSE,156,8.0,14.0,34,0.00,,,0.00,957.000000,,2013-05-01 21:32:00,
2013-05-01 21:43:00,92.0,60.0,-100.00,SSE,156,8.0,14.0,34,0.00,,,0.00,957.000000,,2013-05-01 21:43:00,
2013-05-01 21:53:00,92.0,60.0,-100.00,SSE,156,8.0,14.0,34,0.00,,,0.00,957.000000,,2013-05-01 21:53:00,
2013-05-01 22:03:00,92.0,60.0,-100.00,SSE,156,8.0,14.0,34,0.00,,,0.00,957.000000,,2013-05-01 22:03:00,
2013-05-01 22:33:00,92.0,58.0,-100.00,NE,49,5.0,15.0,32,0.00,,,0.00,778.000000,,2013-05-01 22:33:00,
2013-05-01 22:42:00,92.0,58.0,-100.00,NE,49,5.0,15.0,32,0.00,,,0.00,778.000000,,2013-05-01 22:42:00,
2013-05-01 22:53:00,92.0,58.0,-100.00,NE,49,5.0,15.0,32,0.00,,,0.00,778.000000,,2013-05-01 22:53:00,
2013-05-01 23:02:00,92.0,58.0,-100.00,NE,49,5.0,15.0,32,0.00,,,0.00,778.000000,,2013-05-01 23:02:00,
2013-05-01 23:32:00,92.0,56.0,-100.00,East,95,9.0,14.0,30,0.00,,,0.00,557.000000,,2013-05-01 23:32:00,
2013-05-01 23:42:00,92.0,56.0,-100.00,East,95,9.0,14.0,30,0.00,,,0.00,557.000000,,2013-05-01 23:42:00,
2013-05-01 23:52:00,92.0,56.0,-100.00,East,95,9.0,14.0,30,0.00,,,0.00,557.000000,,2013-05-01 23:52:00,